メインページ
METAR-TAF:

METAR-TAF

空港 :

セントキャサリンズ, オンタリオ州, カナダ

緯度: 43-12N, 経度: 079-10W, 海抜: 98m

現時点の気象観測

当レポートは45分前の13:18(UTC)に作成
西の風 16kt、最大22ktの突風を伴う
気温 0°C
湿度 93%
気圧 1008 hPa
視程: 24.1km
高度2500ftの雲は散在している
高度4800ftの曇り

METAR: CYSN 151318Z 27016G22KT 15SM SCT025 OVC048 00/M01 A2977 RMK SC3SC5 SLP087

時間: 09:03 (14:03 UTC)

予報

当レポートは25分前の13:38(UTC)に作成
予報は15日の 14時(UTC)から 16日の 02時(UTC)まで有効
西の風 15kt、最大25ktの突風を伴う
視程: 10km
高度2500ftの雲は散在している
高度4000ftの千切れ雲あり
15日の 15時(UTC)から 15日の 18時(UTC)まで一時的に
視程: 10km
高度2000ftの千切れ雲あり
高度3000ftの曇り
弱いにわか雪
15日の 1800時(UTC)から
西の風 15kt、最大25ktの突風を伴う
視程: 10km
高度3000ftの千切れ雲あり
弱いにわか雪
15日の 18時(UTC)から 15日の 23時(UTC)まで一時的に
高度2000ftの曇り
弱いにわか雪
確率 30%
15日の 18時(UTC)から 15日の 23時(UTC)まで
高度1500ftの曇り
弱いにわか雪
15日の 2300時(UTC)から
西の風 12kt、最大22ktの突風を伴う
視程: 10km
高度4000ftの雲は散在している
15日の 23時(UTC)から 16日の 01時(UTC)まで徐々に
西の風 8kt

TAF: CYSN 151338Z 1514/1602 27015G25KT P6SM SCT025 BKN040 TEMPO 1515/1518 P6SM -SHSN BKN020 OVC030 FM151800 27015G25KT P6SM -SHSN BKN030 TEMPO 1518/1523 21/2SM -SHSN OVC020 PROB30 1518/1523 11/2SM -SHSN OVC015 FM152300 27012G22KT P6SM SCT040 BECMG 1523/1601 26008KT RMK NXT FCST BY 152000Z

4,000以上の空港の気象観測と天気予報(METAR報とTAF報)

利用可能な観測所は地図上に黄色い丸と赤い丸で示す。

丸の上にカーソルを重ねると観測所名を参照できる。

次にクリックすると気象観測と天気予報を参照できる。

マップの切り替え:黒色「×」印の緑ボタンをクリックして拡大、「-」印の緑ボタンをクリックして縮小、緑色の三角印をクリックして隣りの地図に切り替え


METAR-TAF: